createdAt,value
2018-09-08T00:01:29.762Z,5.20
2018-09-08T00:06:28.271Z,4.80
2018-09-08T00:11:21.334Z,5.60
2018-09-08T00:16:19.547Z,7.00
2018-09-08T00:21:17.889Z,8.83
2018-09-08T00:26:16.346Z,6.63
2018-09-08T00:31:12.806Z,4.87
2018-09-08T00:36:05.379Z,4.40
2018-09-08T00:40:57.977Z,4.10
2018-09-08T00:45:50.636Z,3.80
2018-09-08T00:50:43.239Z,4.37
2018-09-08T00:55:35.843Z,4.20
2018-09-08T01:00:28.434Z,3.97
2018-09-08T01:05:21.205Z,3.80
2018-09-08T01:10:13.887Z,4.20
2018-09-08T01:15:06.946Z,4.20
2018-09-08T01:19:59.523Z,3.93
2018-09-08T01:24:52.120Z,4.10
2018-09-08T01:29:44.661Z,3.07
2018-09-08T01:34:37.253Z,3.03
2018-09-08T01:39:29.823Z,3.50
2018-09-08T01:44:22.379Z,3.17
2018-09-08T01:49:14.941Z,3.30
2018-09-08T01:54:07.888Z,3.20
2018-09-08T01:59:00.470Z,2.83
2018-09-08T02:03:53.065Z,3.03
2018-09-08T02:08:45.644Z,3.00
2018-09-08T02:13:38.290Z,3.30
2018-09-08T02:18:30.894Z,3.20
2018-09-08T02:23:23.612Z,3.50
2018-09-08T02:28:16.132Z,3.40
2018-09-08T02:33:08.723Z,3.50
2018-09-08T02:38:01.277Z,3.20
2018-09-08T02:42:53.855Z,3.50
2018-09-08T02:47:46.430Z,3.30
2018-09-08T02:52:37.755Z,3.37
2018-09-08T02:57:29.063Z,3.23
2018-09-08T03:02:20.387Z,3.33
2018-09-08T03:07:13.055Z,3.70
2018-09-08T03:12:04.384Z,3.80
2018-09-08T03:16:55.671Z,3.80
2018-09-08T03:21:47.046Z,3.90
2018-09-08T03:26:38.370Z,4.07
2018-09-08T03:31:29.716Z,4.20
2018-09-08T03:36:21.062Z,4.00
2018-09-08T03:41:12.409Z,3.90
2018-09-08T03:46:03.905Z,5.00
2018-09-08T03:50:55.219Z,10.40
2018-09-08T03:55:46.567Z,8.20
2018-09-08T04:00:37.890Z,7.10
2018-09-08T04:05:30.585Z,5.90
2018-09-08T04:10:23.322Z,5.37
2018-09-08T04:15:15.912Z,5.20
2018-09-08T04:20:08.542Z,5.10
2018-09-08T04:25:01.492Z,4.30
2018-09-08T04:29:54.279Z,4.50
2018-09-08T04:34:46.860Z,4.83
2018-09-08T04:39:39.499Z,4.83
2018-09-08T04:44:32.062Z,4.47
2018-09-08T04:49:24.702Z,4.00
2018-09-08T04:54:17.405Z,4.40
2018-09-08T04:59:09.958Z,4.13
2018-09-08T05:04:02.519Z,4.77
2018-09-08T05:08:55.170Z,4.47
2018-09-08T05:13:47.769Z,5.30
2018-09-08T05:18:40.377Z,4.83
2018-09-08T05:23:33.037Z,5.00
2018-09-08T05:28:25.687Z,5.27
2018-09-08T05:33:18.213Z,4.87
2018-09-08T05:38:10.778Z,4.27
2018-09-08T05:43:03.455Z,4.00
2018-09-08T05:47:56.054Z,4.10
2018-09-08T05:52:48.620Z,3.90
2018-09-08T05:57:41.194Z,3.80
2018-09-08T06:02:33.825Z,3.60
2018-09-08T06:07:26.543Z,3.40
2018-09-08T06:12:19.167Z,3.70
2018-09-08T06:17:11.774Z,3.20
2018-09-08T06:22:04.338Z,2.80
2018-09-08T06:26:57.027Z,3.13
2018-09-08T06:31:49.658Z,3.27
2018-09-08T06:36:42.547Z,3.20
2018-09-08T06:41:35.106Z,3.30
2018-09-08T06:46:27.650Z,3.00
2018-09-08T06:51:20.241Z,3.03
2018-09-08T06:56:12.767Z,2.30
2018-09-08T07:01:05.499Z,2.50
2018-09-08T07:05:58.215Z,2.30
2018-09-08T07:10:50.824Z,2.50
2018-09-08T07:15:43.496Z,2.50
2018-09-08T07:20:36.175Z,2.07
2018-09-08T07:25:28.812Z,2.40
2018-09-08T07:30:21.352Z,2.07
2018-09-08T07:35:13.967Z,2.00
2018-09-08T07:40:06.517Z,1.80
2018-09-08T07:44:59.272Z,2.03
2018-09-08T07:49:52.918Z,1.93
2018-09-08T07:54:45.517Z,2.27
2018-09-08T07:59:38.257Z,1.70
2018-09-08T08:04:30.863Z,2.03
2018-09-08T08:09:23.526Z,1.80
2018-09-08T08:14:16.114Z,1.70
2018-09-08T08:19:09.058Z,1.73
2018-09-08T08:24:01.724Z,1.57
2018-09-08T08:28:54.310Z,1.80
2018-09-08T08:33:46.905Z,1.60
2018-09-08T08:38:39.729Z,2.20
2018-09-08T08:43:32.499Z,1.63
2018-09-08T08:48:25.108Z,2.20
2018-09-08T08:53:35.458Z,2.17
2018-09-08T08:58:28.015Z,1.90
2018-09-08T09:03:20.642Z,1.87
2018-09-08T09:08:13.255Z,2.70
2018-09-08T09:13:05.938Z,2.00
2018-09-08T09:17:58.691Z,1.93
2018-09-08T09:23:08.911Z,2.20
2018-09-08T09:28:01.547Z,2.33
2018-09-08T09:32:54.332Z,2.47
2018-09-08T09:37:46.911Z,2.50
2018-09-08T09:42:39.581Z,2.10
2018-09-08T09:47:32.406Z,2.07
2018-09-08T09:52:25.049Z,1.80
2018-09-08T09:57:17.754Z,4.37
2018-09-08T10:02:44.343Z,1.77
2018-09-08T10:07:36.954Z,1.77
2018-09-08T10:12:29.611Z,1.90
2018-09-08T10:17:22.260Z,1.70
2018-09-08T10:22:14.871Z,2.17
2018-09-08T10:27:07.459Z,1.63
2018-09-08T10:32:00.103Z,1.80
2018-09-08T10:36:53.066Z,1.63
2018-09-08T10:41:45.681Z,1.90
2018-09-08T10:46:38.368Z,1.60
2018-09-08T10:53:40.340Z,1.50
2018-09-08T10:58:32.918Z,1.60
2018-09-08T11:03:25.499Z,1.80
2018-09-08T11:08:18.092Z,1.70
2018-09-08T11:13:10.676Z,1.80
2018-09-08T11:18:03.288Z,1.70
2018-09-08T11:22:55.994Z,1.47
2018-09-08T11:27:48.592Z,1.70
2018-09-08T11:32:41.240Z,1.40
2018-09-08T11:37:33.851Z,1.43
2018-09-08T11:42:26.517Z,1.40
2018-09-08T11:47:19.056Z,1.47
2018-09-08T11:52:11.627Z,1.07
2018-09-08T11:57:04.403Z,1.30
2018-09-08T12:01:57.094Z,1.30
2018-09-08T12:06:49.647Z,1.40
2018-09-08T12:11:42.289Z,1.07
2018-09-08T12:16:34.889Z,1.30
2018-09-08T12:21:27.571Z,1.60
2018-09-08T12:26:20.155Z,1.50
2018-09-08T12:31:12.766Z,1.30
2018-09-08T12:36:06.136Z,1.20
2018-09-08T12:40:58.759Z,1.17
2018-09-08T12:45:51.355Z,1.13
2018-09-08T12:50:43.869Z,1.07
2018-09-08T12:55:36.483Z,1.53
2018-09-08T13:00:29.166Z,1.07
2018-09-08T13:05:21.683Z,1.17
2018-09-08T13:10:14.255Z,1.20
2018-09-08T13:15:06.936Z,1.40
2018-09-08T13:20:00.007Z,1.10
2018-09-08T13:24:53.007Z,1.20
2018-09-08T13:29:45.608Z,1.30
2018-09-08T13:34:38.449Z,1.13
2018-09-08T13:39:31.017Z,1.00
2018-09-08T13:44:23.618Z,1.17
2018-09-08T13:49:16.226Z,1.10
2018-09-08T13:54:09.058Z,1.00
2018-09-08T13:59:02.042Z,1.20
2018-09-08T14:03:54.672Z,1.17
2018-09-08T14:08:47.234Z,1.20
2018-09-08T14:13:39.908Z,1.03
2018-09-08T14:18:32.592Z,3.33
2018-09-08T14:23:25.402Z,1.00
2018-09-08T14:28:17.940Z,1.23
2018-09-08T14:33:10.658Z,1.17
2018-09-08T14:38:03.245Z,1.80
2018-09-08T14:42:56.051Z,1.20
2018-09-08T14:47:48.583Z,1.10
2018-09-08T14:52:41.235Z,1.30
2018-09-08T14:57:33.868Z,1.27
2018-09-08T15:02:26.470Z,1.40
2018-09-08T15:07:19.126Z,1.30
2018-09-08T15:12:11.711Z,1.17
2018-09-08T15:17:04.780Z,1.90
2018-09-08T15:21:57.413Z,2.90
2018-09-08T15:26:49.974Z,1.53
2018-09-08T15:31:42.550Z,1.60
2018-09-08T15:36:35.155Z,1.67
2018-09-08T15:41:27.712Z,2.60
2018-09-08T15:46:20.367Z,1.40
2018-09-08T15:51:13.024Z,1.60
2018-09-08T15:56:05.559Z,1.83
2018-09-08T16:00:58.183Z,2.77
2018-09-08T16:05:50.793Z,1.90
2018-09-08T16:10:43.414Z,2.10
2018-09-08T16:15:36.282Z,4.43
2018-09-08T16:20:28.957Z,1.70
2018-09-08T16:25:21.572Z,1.60
2018-09-08T16:30:14.128Z,1.83
2018-09-08T16:35:06.831Z,1.90
2018-09-08T16:39:59.439Z,1.70
2018-09-08T16:44:52.028Z,2.60
2018-09-08T16:49:44.551Z,2.40
2018-09-08T16:54:37.328Z,1.93
2018-09-08T16:59:30.135Z,1.70
2018-09-08T17:04:22.835Z,2.10
2018-09-08T17:09:15.511Z,2.00
2018-09-08T17:14:08.120Z,2.53
2018-09-08T17:19:00.769Z,2.20
2018-09-08T17:23:53.352Z,2.80
2018-09-08T17:28:46.015Z,2.80
2018-09-08T17:33:38.595Z,2.50
2018-09-08T17:38:31.151Z,2.50
2018-09-08T17:43:23.709Z,2.60
2018-09-08T17:48:16.282Z,3.37
2018-09-08T17:53:08.866Z,3.93
2018-09-08T17:58:01.463Z,3.63
2018-09-08T18:02:54.491Z,4.03
2018-09-08T18:07:47.059Z,4.07
2018-09-08T18:12:40.747Z,4.30
2018-09-08T18:17:33.367Z,3.77
2018-09-08T18:22:25.986Z,4.27
2018-09-08T18:27:18.583Z,4.70
2018-09-08T18:32:11.135Z,5.37
2018-09-08T18:37:03.822Z,4.60
2018-09-08T18:41:56.638Z,4.50
2018-09-08T18:46:49.155Z,6.20
2018-09-08T18:51:41.764Z,8.00
2018-09-08T18:56:34.355Z,8.50
2018-09-08T19:01:27.017Z,7.67
2018-09-08T19:06:36.861Z,7.93
2018-09-08T19:11:29.591Z,8.70
2018-09-08T19:16:22.247Z,10.40
2018-09-08T19:21:14.786Z,11.03
2018-09-08T19:26:07.472Z,11.67
2018-09-08T19:31:00.107Z,11.23
2018-09-08T19:35:52.774Z,10.53
2018-09-08T19:40:46.690Z,10.73
2018-09-08T19:45:39.495Z,10.70
2018-09-08T19:50:32.654Z,11.17
2018-09-08T19:55:25.249Z,12.43
2018-09-08T20:00:17.862Z,11.50
2018-09-08T20:05:10.351Z,11.90
2018-09-08T20:10:02.885Z,12.70
2018-09-08T20:14:55.428Z,13.07
2018-09-08T20:19:48.041Z,13.17
2018-09-08T20:24:40.620Z,13.33
2018-09-08T20:29:33.203Z,13.87
2018-09-08T20:34:26.151Z,15.87
2018-09-08T20:39:18.759Z,16.00
2018-09-08T20:44:11.332Z,17.20
2018-09-08T20:49:04.334Z,31.57
2018-09-08T20:53:56.833Z,38.13
2018-09-08T20:58:49.472Z,27.57
2018-09-08T21:03:42.113Z,20.17
2018-09-08T21:08:36.141Z,17.33
2018-09-08T21:13:28.687Z,19.70
2018-09-08T21:18:21.400Z,18.97
2018-09-08T21:23:13.994Z,17.67
2018-09-08T21:28:06.564Z,16.27
2018-09-08T21:32:59.215Z,15.00
2018-09-08T21:37:51.770Z,15.00
2018-09-08T21:42:44.338Z,15.10
2018-09-08T21:47:36.896Z,13.43
2018-09-08T21:52:29.468Z,12.63
2018-09-08T21:57:22.024Z,14.53
2018-09-08T22:02:14.679Z,13.67
2018-09-08T22:07:07.502Z,13.00
2018-09-08T22:12:00.464Z,11.50
2018-09-08T22:16:53.063Z,10.17
2018-09-08T22:21:45.660Z,10.90
2018-09-08T22:26:38.278Z,10.50
2018-09-08T22:31:31.195Z,10.23
2018-09-08T22:36:24.078Z,9.87
2018-09-08T22:41:16.671Z,10.13
2018-09-08T22:46:09.278Z,11.20
2018-09-08T22:51:01.839Z,10.77
2018-09-08T22:55:54.505Z,11.87
2018-09-08T23:00:47.107Z,13.23
2018-09-08T23:05:39.654Z,13.03
2018-09-08T23:10:32.678Z,10.37
2018-09-08T23:15:25.510Z,9.80
2018-09-08T23:20:21.280Z,10.57
2018-09-08T23:25:13.866Z,11.67
2018-09-08T23:30:06.782Z,11.27
2018-09-08T23:34:59.404Z,9.80
2018-09-08T23:39:51.975Z,9.67
2018-09-08T23:44:44.594Z,9.90
2018-09-08T23:49:37.271Z,10.23
2018-09-08T23:54:29.838Z,9.83
2018-09-08T23:59:22.687Z,10.60
